createdAt,value
2019-01-24T00:01:34.908Z,52.11
2019-01-24T00:04:04.414Z,52.54
2019-01-24T00:06:33.854Z,51.42
2019-01-24T00:09:04.039Z,52.34
2019-01-24T00:11:33.540Z,52.08
2019-01-24T00:14:03.379Z,52.69
2019-01-24T00:16:32.782Z,52.84
2019-01-24T00:19:02.162Z,52.54
2019-01-24T00:21:31.553Z,52.33
2019-01-24T00:24:00.967Z,52.87
2019-01-24T00:26:30.390Z,53.03
2019-01-24T00:28:59.773Z,53.16
2019-01-24T00:31:29.151Z,53.82
2019-01-24T00:33:58.602Z,53.58
2019-01-24T00:36:27.984Z,54.29
2019-01-24T00:38:57.747Z,54.05
2019-01-24T00:41:27.124Z,54.05
2019-01-24T00:43:56.560Z,55.60
2019-01-24T00:46:25.944Z,54.92
2019-01-24T00:48:55.327Z,54.42
2019-01-24T00:51:24.768Z,54.63
2019-01-24T00:53:54.239Z,54.04
2019-01-24T00:56:23.615Z,54.21
2019-01-24T00:58:52.990Z,55.18
2019-01-24T01:01:22.462Z,55.88
2019-01-24T01:03:52.097Z,54.53
2019-01-24T01:06:21.646Z,54.29
2019-01-24T01:08:51.007Z,54.88
2019-01-24T01:11:20.467Z,54.51
2019-01-24T01:13:49.916Z,55.53
2019-01-24T01:16:19.385Z,55.84
2019-01-24T01:18:48.805Z,55.01
2019-01-24T01:21:18.260Z,54.59
2019-01-24T01:23:47.649Z,54.67
2019-01-24T01:26:17.051Z,55.02
2019-01-24T01:28:46.571Z,54.70
2019-01-24T01:31:16.016Z,54.50
2019-01-24T01:33:45.523Z,54.59
2019-01-24T01:36:14.985Z,54.85
2019-01-24T01:38:44.423Z,54.78
2019-01-24T01:41:13.838Z,55.79
2019-01-24T01:43:43.231Z,54.36
2019-01-24T01:46:12.650Z,53.96
2019-01-24T01:48:42.057Z,53.53
2019-01-24T01:51:11.515Z,53.74
2019-01-24T01:53:40.964Z,53.86
2019-01-24T01:56:10.440Z,53.69
2019-01-24T01:58:39.862Z,53.72
2019-01-24T02:01:09.251Z,53.52
2019-01-24T02:03:38.650Z,53.42
2019-01-24T02:06:08.100Z,53.37
2019-01-24T02:08:37.558Z,53.32
2019-01-24T02:11:07.040Z,53.27
2019-01-24T02:13:36.446Z,53.42
2019-01-24T02:16:05.989Z,53.29
2019-01-24T02:18:35.454Z,53.22
2019-01-24T02:21:05.138Z,53.55
2019-01-24T02:23:34.634Z,53.95
2019-01-24T02:26:04.127Z,53.66
2019-01-24T02:28:33.488Z,53.65
2019-01-24T02:31:02.980Z,53.64
2019-01-24T02:33:32.430Z,53.69
2019-01-24T02:36:01.916Z,54.11
2019-01-24T02:38:31.381Z,52.82
2019-01-24T02:41:00.739Z,52.63
2019-01-24T02:43:30.127Z,52.34
2019-01-24T02:45:59.868Z,52.31
2019-01-24T02:48:29.238Z,53.81
2019-01-24T02:50:58.593Z,53.77
2019-01-24T02:53:27.959Z,53.95
2019-01-24T02:55:57.422Z,54.10
2019-01-24T02:58:26.857Z,54.45
2019-01-24T03:00:56.233Z,55.95
2019-01-24T03:03:25.599Z,54.73
2019-01-24T03:05:55.060Z,54.53
2019-01-24T03:08:24.452Z,54.76
2019-01-24T03:10:53.896Z,55.47
2019-01-24T03:13:23.267Z,55.19
2019-01-24T03:15:52.650Z,54.62
2019-01-24T03:18:22.125Z,54.57
2019-01-24T03:20:51.487Z,54.75
2019-01-24T03:23:20.927Z,54.99
2019-01-24T03:25:50.301Z,55.32
2019-01-24T03:28:19.662Z,56.15
2019-01-24T03:30:49.033Z,55.69
2019-01-24T03:33:18.505Z,55.40
2019-01-24T03:35:48.185Z,56.78
2019-01-24T03:38:17.581Z,55.45
2019-01-24T03:40:47.020Z,57.63
2019-01-24T03:43:16.390Z,57.37
2019-01-24T03:45:45.776Z,57.18
2019-01-24T03:48:15.333Z,56.22
2019-01-24T03:50:44.737Z,56.58
2019-01-24T03:53:14.270Z,56.39
2019-01-24T03:55:43.627Z,54.68
2019-01-24T03:58:13.071Z,53.99
2019-01-24T04:00:42.556Z,54.31
2019-01-24T04:03:12.037Z,54.01
2019-01-24T04:05:41.451Z,54.22
2019-01-24T04:08:11.034Z,54.44
2019-01-24T04:10:40.436Z,54.53
2019-01-24T04:13:09.982Z,54.90
2019-01-24T04:15:39.526Z,53.96
2019-01-24T04:18:09.295Z,53.82
2019-01-24T04:20:38.675Z,53.65
2019-01-24T04:23:08.028Z,52.74
2019-01-24T04:25:37.423Z,53.29
2019-01-24T04:28:06.817Z,53.53
2019-01-24T04:30:36.429Z,53.50
2019-01-24T04:33:05.855Z,53.90
2019-01-24T04:35:35.248Z,53.85
2019-01-24T04:38:04.717Z,53.77
2019-01-24T04:40:34.158Z,56.48
2019-01-24T04:43:03.533Z,53.23
2019-01-24T04:45:33.054Z,52.97
2019-01-24T04:48:02.422Z,52.92
2019-01-24T04:50:31.769Z,52.37
2019-01-24T04:53:02.236Z,52.52
2019-01-24T04:55:31.614Z,52.15
2019-01-24T04:58:00.990Z,52.93
2019-01-24T05:00:31.209Z,53.13
2019-01-24T05:03:00.742Z,53.67
2019-01-24T05:05:30.177Z,53.34
2019-01-24T05:07:59.619Z,53.20
2019-01-24T05:10:28.984Z,52.79
2019-01-24T05:12:58.329Z,52.29
2019-01-24T05:15:27.692Z,52.72
2019-01-24T05:17:57.128Z,53.27
2019-01-24T05:20:26.492Z,53.37
2019-01-24T05:22:55.897Z,53.59
2019-01-24T05:25:25.266Z,54.14
2019-01-24T05:27:54.628Z,54.11
2019-01-24T05:30:26.085Z,54.40
2019-01-24T05:32:55.551Z,54.12
2019-01-24T05:35:25.281Z,54.46
2019-01-24T05:37:54.604Z,54.83
2019-01-24T05:40:24.081Z,54.63
2019-01-24T05:42:53.501Z,54.42
2019-01-24T05:45:23.019Z,54.48
2019-01-24T05:47:52.417Z,54.41
2019-01-24T05:50:21.852Z,54.66
2019-01-24T05:52:51.230Z,54.49
2019-01-24T05:55:20.617Z,54.70
2019-01-24T05:57:49.961Z,54.82
2019-01-24T06:00:38.492Z,54.63
2019-01-24T06:03:07.872Z,55.10
2019-01-24T06:05:41.714Z,56.65
2019-01-24T06:08:09.557Z,55.51
2019-01-24T06:10:39.175Z,53.88
2019-01-24T06:13:08.547Z,54.39
2019-01-24T06:15:37.922Z,53.49
2019-01-24T06:18:08.324Z,53.44
2019-01-24T06:20:37.781Z,53.55
2019-01-24T06:23:07.217Z,53.82
2019-01-24T06:25:36.589Z,53.28
2019-01-24T06:28:06.112Z,53.31
2019-01-24T06:30:35.554Z,53.44
2019-01-24T06:33:05.177Z,53.29
2019-01-24T06:35:34.544Z,53.57
2019-01-24T06:38:03.961Z,53.52
2019-01-24T06:40:33.444Z,53.14
2019-01-24T06:43:03.072Z,53.29
2019-01-24T06:45:32.547Z,53.84
2019-01-24T06:48:01.979Z,53.46
2019-01-24T06:50:31.412Z,53.28
2019-01-24T06:53:00.954Z,53.27
2019-01-24T06:55:30.444Z,54.22
2019-01-24T06:57:59.798Z,53.62
2019-01-24T07:00:29.481Z,55.54
2019-01-24T07:02:58.890Z,54.24
2019-01-24T07:05:28.513Z,53.88
2019-01-24T07:07:57.907Z,53.99
2019-01-24T07:10:27.332Z,53.82
2019-01-24T07:12:56.793Z,53.23
2019-01-24T07:15:26.223Z,52.96
2019-01-24T07:17:55.652Z,52.98
2019-01-24T07:20:25.340Z,53.39
2019-01-24T07:22:54.758Z,53.78
2019-01-24T07:25:25.642Z,53.34
2019-01-24T07:27:55.160Z,53.44
2019-01-24T07:30:24.602Z,52.95
2019-01-24T07:32:54.038Z,52.97
2019-01-24T07:35:23.500Z,53.46
2019-01-24T07:37:52.917Z,54.63
2019-01-24T07:40:22.384Z,53.72
2019-01-24T07:42:51.757Z,53.46
2019-01-24T07:45:29.503Z,54.06
2019-01-24T07:47:58.905Z,54.27
2019-01-24T07:50:28.333Z,55.31
2019-01-24T07:52:57.685Z,54.96
2019-01-24T07:55:27.048Z,54.91
2019-01-24T07:57:56.500Z,54.73
2019-01-24T08:00:26.500Z,54.61
2019-01-24T08:02:55.930Z,54.53
2019-01-24T08:05:25.815Z,54.96
2019-01-24T08:07:56.892Z,54.75
2019-01-24T08:10:26.374Z,54.43
2019-01-24T08:12:55.830Z,54.85
2019-01-24T08:15:25.321Z,54.65
2019-01-24T08:17:54.802Z,54.28
2019-01-24T08:20:25.648Z,53.66
2019-01-24T08:22:55.111Z,53.65
2019-01-24T08:25:24.561Z,54.23
2019-01-24T08:27:53.987Z,53.66
2019-01-24T08:30:28.567Z,54.11
2019-01-24T08:32:58.091Z,54.17
2019-01-24T08:35:27.551Z,53.63
2019-01-24T08:37:57.036Z,53.69
2019-01-24T08:40:26.723Z,53.54
2019-01-24T08:42:56.181Z,54.19
2019-01-24T08:45:25.650Z,54.33
2019-01-24T08:47:55.361Z,54.31
2019-01-24T08:50:29.086Z,54.36
2019-01-24T08:52:58.595Z,53.76
2019-01-24T08:55:30.283Z,54.52
2019-01-24T08:57:59.672Z,54.39
2019-01-24T09:00:29.205Z,53.99
2019-01-24T09:02:58.741Z,54.06
2019-01-24T09:05:28.380Z,54.15
2019-01-24T09:07:57.809Z,54.30
2019-01-24T09:10:29.692Z,54.71
2019-01-24T09:12:59.270Z,54.99
2019-01-24T09:15:29.318Z,54.94
2019-01-24T09:17:58.772Z,55.16
2019-01-24T09:20:28.286Z,55.45
2019-01-24T09:22:57.753Z,55.42
2019-01-24T09:25:27.231Z,55.59
2019-01-24T09:27:56.640Z,55.82
2019-01-24T09:30:26.888Z,55.52
2019-01-24T09:32:56.411Z,55.87
2019-01-24T09:35:25.924Z,55.99
2019-01-24T09:37:55.429Z,55.94
2019-01-24T09:40:25.268Z,56.63
2019-01-24T09:42:54.792Z,56.54
2019-01-24T09:45:25.784Z,56.18
2019-01-24T09:47:56.817Z,56.51
2019-01-24T09:50:26.643Z,56.60
2019-01-24T09:52:56.224Z,56.68
2019-01-24T09:55:25.709Z,56.64
2019-01-24T09:57:55.171Z,56.84
2019-01-24T10:00:26.739Z,56.66
2019-01-24T10:02:56.258Z,56.85
2019-01-24T10:05:25.782Z,56.83
2019-01-24T10:07:55.898Z,56.71
2019-01-24T10:10:25.797Z,56.71
2019-01-24T10:12:55.895Z,57.20
2019-01-24T10:15:25.456Z,56.92
2019-01-24T10:17:54.962Z,57.01
2019-01-24T10:20:25.522Z,57.02
2019-01-24T10:22:55.155Z,56.86
2019-01-24T10:25:27.324Z,57.23
2019-01-24T10:27:56.869Z,57.17
2019-01-24T10:30:26.382Z,57.28
2019-01-24T10:32:55.854Z,57.21
2019-01-24T10:35:25.291Z,57.09
2019-01-24T10:37:54.746Z,57.43
2019-01-24T10:40:27.313Z,57.31
2019-01-24T10:42:56.817Z,57.64
2019-01-24T10:45:26.156Z,57.81
2019-01-24T10:47:55.935Z,58.09
2019-01-24T10:50:26.184Z,58.30
2019-01-24T10:52:55.533Z,59.75
2019-01-24T10:55:26.543Z,60.81
2019-01-24T10:57:57.981Z,61.48
2019-01-24T11:00:33.192Z,61.76
2019-01-24T11:03:03.911Z,62.31
2019-01-24T11:05:33.558Z,62.53
2019-01-24T11:08:03.087Z,63.20
2019-01-24T11:10:32.673Z,63.17
2019-01-24T11:13:04.125Z,62.50
2019-01-24T11:15:33.729Z,63.65
2019-01-24T11:18:03.107Z,66.49
2019-01-24T11:20:32.562Z,68.01
2019-01-24T11:23:02.011Z,63.05
2019-01-24T11:25:31.431Z,67.25
2019-01-24T11:28:00.833Z,67.32
2019-01-24T11:30:30.863Z,68.54
2019-01-24T11:33:00.785Z,69.46
2019-01-24T11:35:32.231Z,69.57
2019-01-24T11:38:01.604Z,67.98
2019-01-24T11:40:31.106Z,67.29
2019-01-24T11:43:00.663Z,66.57
2019-01-24T11:45:33.137Z,65.85
2019-01-24T11:48:02.667Z,65.21
2019-01-24T11:50:32.166Z,64.28
2019-01-24T11:53:01.772Z,63.90
2019-01-24T11:55:31.418Z,59.57
2019-01-24T11:58:00.857Z,61.78
2019-01-24T12:00:38.725Z,61.25
2019-01-24T12:03:08.179Z,62.46
2019-01-24T12:05:37.729Z,61.21
2019-01-24T12:08:09.909Z,58.59
2019-01-24T12:10:39.309Z,60.24
2019-01-24T12:13:08.759Z,59.36
2019-01-24T12:15:39.154Z,58.76
2019-01-24T12:18:08.586Z,59.46
2019-01-24T12:20:37.999Z,59.88
2019-01-24T12:23:07.441Z,58.54
2019-01-24T12:25:37.058Z,59.49
2019-01-24T12:28:06.579Z,59.82
2019-01-24T12:30:36.719Z,55.71
2019-01-24T12:33:07.103Z,58.80
2019-01-24T12:35:36.668Z,59.01
2019-01-24T12:38:06.219Z,58.97
2019-01-24T12:40:35.641Z,58.63
2019-01-24T12:43:05.287Z,58.43
2019-01-24T12:45:36.229Z,58.24
2019-01-24T12:48:06.594Z,58.27
2019-01-24T12:50:36.148Z,57.85
2019-01-24T12:53:06.610Z,57.67
2019-01-24T12:55:36.063Z,57.50
2019-01-24T12:58:05.887Z,57.29
2019-01-24T13:00:40.346Z,57.05
2019-01-24T13:03:09.811Z,56.96
2019-01-24T13:05:39.261Z,57.21
2019-01-24T13:08:09.101Z,57.56
2019-01-24T13:10:38.581Z,57.23
2019-01-24T13:13:08.049Z,57.44
2019-01-24T13:15:37.615Z,57.51
2019-01-24T13:18:07.159Z,57.61
2019-01-24T13:20:36.670Z,57.45
2019-01-24T13:23:06.162Z,57.49
2019-01-24T13:25:35.739Z,57.48
2019-01-24T13:28:06.081Z,57.36
2019-01-24T13:30:35.724Z,57.19
2019-01-24T13:33:06.192Z,57.22
2019-01-24T13:35:35.975Z,57.02
2019-01-24T13:38:06.392Z,56.88
2019-01-24T13:40:38.751Z,56.82
2019-01-24T13:43:08.633Z,56.79
2019-01-24T13:45:39.408Z,56.47
2019-01-24T13:48:08.927Z,56.46
2019-01-24T13:50:38.375Z,56.36
2019-01-24T13:53:08.099Z,56.31
2019-01-24T13:55:39.333Z,56.24
2019-01-24T13:58:09.286Z,55.98
2019-01-24T14:00:40.175Z,55.77
2019-01-24T14:03:31.016Z,55.72
2019-01-24T14:06:00.716Z,55.73
2019-01-24T14:08:30.073Z,53.79
2019-01-24T14:10:59.688Z,55.07
2019-01-24T14:13:29.038Z,55.43
2019-01-24T14:15:58.431Z,55.63
2019-01-24T14:18:27.850Z,55.62
2019-01-24T14:20:57.213Z,55.69
2019-01-24T14:23:26.834Z,55.82
2019-01-24T14:25:56.531Z,55.90
2019-01-24T14:28:26.240Z,55.74
2019-01-24T14:30:55.683Z,55.60
2019-01-24T14:33:25.118Z,55.47
2019-01-24T14:35:55.746Z,55.41
2019-01-24T14:38:25.226Z,55.12
2019-01-24T14:40:54.636Z,55.28
2019-01-24T14:43:24.024Z,55.36
2019-01-24T14:45:53.392Z,55.45
2019-01-24T14:48:22.759Z,55.35
2019-01-24T14:50:52.101Z,55.25
2019-01-24T14:53:21.603Z,55.27
2019-01-24T14:55:50.973Z,55.39
2019-01-24T14:58:20.431Z,55.12
2019-01-24T15:01:08.591Z,54.82
2019-01-24T15:03:37.979Z,54.54
2019-01-24T15:06:07.357Z,54.42
2019-01-24T15:08:36.787Z,54.57
2019-01-24T15:11:07.470Z,54.05
2019-01-24T15:13:36.820Z,54.43
2019-01-24T15:16:06.268Z,54.37
2019-01-24T15:18:35.689Z,54.54
2019-01-24T15:21:05.156Z,54.26
2019-01-24T15:23:34.578Z,54.23
2019-01-24T15:26:04.119Z,54.27
2019-01-24T15:28:33.598Z,54.11
2019-01-24T15:31:03.056Z,54.10
2019-01-24T15:33:32.432Z,54.08
2019-01-24T15:36:01.802Z,53.72
2019-01-24T15:38:31.198Z,53.21
2019-01-24T15:41:00.655Z,53.05
2019-01-24T15:43:30.016Z,52.91
2019-01-24T15:45:59.407Z,52.82
2019-01-24T15:48:28.958Z,53.08
2019-01-24T15:50:58.428Z,52.72
2019-01-24T15:53:27.898Z,52.50
2019-01-24T15:55:57.523Z,53.03
2019-01-24T15:58:26.886Z,53.06
2019-01-24T16:00:56.331Z,53.20
2019-01-24T16:03:25.890Z,53.26
2019-01-24T16:05:55.736Z,54.38
2019-01-24T16:08:25.078Z,53.36
2019-01-24T16:10:55.817Z,53.00
2019-01-24T16:13:25.181Z,54.51
2019-01-24T16:15:54.887Z,54.35
2019-01-24T16:18:24.274Z,52.42
2019-01-24T16:20:53.736Z,52.75
2019-01-24T16:23:23.174Z,53.79
2019-01-24T16:25:52.669Z,53.11
2019-01-24T16:28:24.843Z,53.49
2019-01-24T16:30:53.182Z,52.25
2019-01-24T16:33:22.588Z,51.30
2019-01-24T16:35:52.022Z,50.88
2019-01-24T16:38:21.389Z,51.94
2019-01-24T16:40:50.879Z,51.13
2019-01-24T16:43:20.352Z,49.79
2019-01-24T16:45:49.738Z,50.50
2019-01-24T16:48:19.219Z,52.39
2019-01-24T16:50:48.741Z,50.89
2019-01-24T16:53:18.081Z,50.84
2019-01-24T16:55:47.451Z,50.60
2019-01-24T16:58:16.800Z,52.59
2019-01-24T17:00:50.084Z,50.92
2019-01-24T17:03:19.450Z,50.68
2019-01-24T17:05:48.918Z,56.54
2019-01-24T17:08:18.284Z,50.37
2019-01-24T17:10:48.018Z,51.83
2019-01-24T17:13:17.386Z,50.38
2019-01-24T17:15:46.845Z,50.09
2019-01-24T17:18:16.342Z,50.90
2019-01-24T17:20:45.699Z,51.97
2019-01-24T17:23:15.146Z,51.55
2019-01-24T17:25:44.504Z,52.42
2019-01-24T17:28:13.936Z,51.84
2019-01-24T17:30:43.349Z,52.00
2019-01-24T17:33:12.827Z,50.62
2019-01-24T17:35:42.446Z,52.11
2019-01-24T17:38:11.849Z,51.20
2019-01-24T17:40:41.599Z,53.25
2019-01-24T17:43:11.662Z,52.19
2019-01-24T17:45:41.085Z,50.23
2019-01-24T17:48:10.568Z,51.43
2019-01-24T17:50:39.964Z,51.98
2019-01-24T17:53:09.355Z,49.99
2019-01-24T17:55:41.021Z,51.01
2019-01-24T17:58:11.596Z,51.28
2019-01-24T18:00:45.550Z,50.62
2019-01-24T18:03:15.060Z,51.15
2019-01-24T18:05:44.729Z,50.13
2019-01-24T18:08:14.510Z,51.50
2019-01-24T18:10:43.933Z,50.45
2019-01-24T18:13:13.445Z,50.35
2019-01-24T18:15:42.909Z,51.35
2019-01-24T18:18:14.159Z,50.73
2019-01-24T18:20:43.990Z,50.93
2019-01-24T18:23:13.698Z,50.58
2019-01-24T18:25:43.123Z,50.74
2019-01-24T18:28:13.464Z,50.68
2019-01-24T18:30:43.108Z,50.59
2019-01-24T18:33:12.749Z,50.21
2019-01-24T18:35:42.211Z,50.45
2019-01-24T18:38:11.755Z,51.72
2019-01-24T18:40:41.493Z,53.32
2019-01-24T18:43:15.370Z,53.71
2019-01-24T18:45:47.218Z,54.48
2019-01-24T18:48:16.649Z,51.47
2019-01-24T18:50:47.181Z,50.41
2019-01-24T18:53:16.697Z,51.13
2019-01-24T18:55:46.121Z,50.77
2019-01-24T18:58:15.591Z,50.34
2019-01-24T19:00:46.930Z,51.28
2019-01-24T19:03:16.432Z,51.01
2019-01-24T19:05:46.214Z,51.33
2019-01-24T19:08:15.685Z,51.11
2019-01-24T19:10:45.056Z,51.29
2019-01-24T19:13:14.547Z,51.24
2019-01-24T19:15:45.734Z,50.71
2019-01-24T19:18:15.214Z,50.94
2019-01-24T19:20:44.651Z,51.42
2019-01-24T19:23:14.091Z,52.63
2019-01-24T19:25:43.567Z,51.27
2019-01-24T19:28:15.445Z,55.08
2019-01-24T19:30:44.826Z,51.05
2019-01-24T19:33:14.297Z,51.24
2019-01-24T19:35:43.763Z,52.32
2019-01-24T19:38:13.220Z,53.88
2019-01-24T19:40:43.276Z,53.32
2019-01-24T19:43:12.733Z,50.82
2019-01-24T19:45:42.100Z,52.76
2019-01-24T19:48:11.651Z,54.23
2019-01-24T19:50:41.027Z,54.24
2019-01-24T19:53:10.479Z,52.90
2019-01-24T19:55:39.915Z,54.00
2019-01-24T19:58:09.285Z,55.48
2019-01-24T20:00:38.682Z,53.76
2019-01-24T20:03:08.234Z,51.76
2019-01-24T20:05:37.594Z,53.55
2019-01-24T20:08:07.043Z,50.80
2019-01-24T20:10:36.404Z,50.65
2019-01-24T20:13:06.028Z,50.97
2019-01-24T20:15:35.623Z,51.02
2019-01-24T20:18:06.485Z,50.29
2019-01-24T20:20:37.633Z,51.27
2019-01-24T20:23:07.261Z,50.70
2019-01-24T20:25:36.710Z,50.92
2019-01-24T20:28:06.168Z,51.56
2019-01-24T20:30:35.614Z,50.91
2019-01-24T20:33:05.568Z,51.59
2019-01-24T20:35:37.712Z,51.71
2019-01-24T20:38:07.622Z,51.34
2019-01-24T20:40:37.179Z,51.25
2019-01-24T20:43:08.823Z,51.36
2019-01-24T20:45:38.556Z,51.92
2019-01-24T20:48:08.154Z,51.21
2019-01-24T20:50:37.497Z,56.35
2019-01-24T20:53:07.039Z,55.41
2019-01-24T20:55:36.486Z,51.95
2019-01-24T20:58:06.254Z,50.96
2019-01-24T21:00:35.772Z,50.72
2019-01-24T21:03:05.608Z,50.93
2019-01-24T21:05:35.030Z,51.82
2019-01-24T21:08:04.931Z,51.52
2019-01-24T21:10:34.301Z,53.02
2019-01-24T21:13:03.643Z,52.97
2019-01-24T21:15:33.021Z,51.03
2019-01-24T21:18:02.362Z,52.72
2019-01-24T21:20:32.030Z,52.65
2019-01-24T21:23:01.502Z,57.19
2019-01-24T21:25:30.957Z,56.26
2019-01-24T21:28:00.615Z,55.41
2019-01-24T21:30:32.515Z,54.37
2019-01-24T21:33:01.962Z,55.35
2019-01-24T21:35:31.418Z,55.51
2019-01-24T21:38:00.809Z,51.84
2019-01-24T21:40:30.280Z,51.28
2019-01-24T21:42:59.733Z,50.02
2019-01-24T21:45:31.375Z,50.87
2019-01-24T21:48:00.906Z,55.73
2019-01-24T21:50:31.663Z,52.55
2019-01-24T21:53:01.136Z,56.00
2019-01-24T21:55:30.894Z,54.96
2019-01-24T21:58:00.315Z,57.21
2019-01-24T22:00:29.866Z,54.86
2019-01-24T22:02:59.209Z,55.51
2019-01-24T22:05:28.776Z,56.79
2019-01-24T22:07:58.149Z,53.73
2019-01-24T22:10:28.421Z,50.33
2019-01-24T22:12:58.217Z,50.49
2019-01-24T22:15:28.924Z,50.39
2019-01-24T22:17:58.348Z,49.59
2019-01-24T22:20:27.826Z,49.59
2019-01-24T22:22:57.467Z,49.57
2019-01-24T22:25:31.995Z,49.74
2019-01-24T22:28:01.480Z,52.11
2019-01-24T22:30:36.261Z,50.75
2019-01-24T22:33:06.042Z,49.89
2019-01-24T22:35:35.486Z,49.69
2019-01-24T22:38:06.055Z,50.08
2019-01-24T22:40:35.520Z,49.82
2019-01-24T22:43:05.415Z,49.85
2019-01-24T22:45:35.041Z,49.96
2019-01-24T22:48:05.952Z,50.08
2019-01-24T22:50:35.339Z,50.56
2019-01-24T22:53:05.196Z,50.29
2019-01-24T22:55:34.679Z,50.11
2019-01-24T22:58:04.095Z,49.69
2019-01-24T23:00:52.438Z,50.40
2019-01-24T23:03:34.413Z,49.71
2019-01-24T23:06:03.912Z,50.23
2019-01-24T23:08:33.312Z,50.28
2019-01-24T23:11:02.914Z,49.97
2019-01-24T23:13:32.359Z,49.88
2019-01-24T23:16:01.777Z,50.18
2019-01-24T23:18:31.504Z,49.94
2019-01-24T23:21:01.009Z,49.76
2019-01-24T23:23:30.362Z,49.59
2019-01-24T23:25:59.739Z,50.36
2019-01-24T23:28:29.275Z,50.97
2019-01-24T23:30:58.737Z,52.35
2019-01-24T23:33:28.183Z,51.25
2019-01-24T23:35:57.600Z,50.33
2019-01-24T23:38:27.064Z,49.95
2019-01-24T23:40:56.487Z,50.60
2019-01-24T23:43:26.016Z,50.03
2019-01-24T23:45:55.591Z,49.72
2019-01-24T23:48:25.000Z,51.12
2019-01-24T23:50:54.513Z,50.13
2019-01-24T23:53:23.966Z,50.16
2019-01-24T23:55:53.409Z,51.03
2019-01-24T23:58:22.812Z,50.45
